createdAt,value
2019-04-01T00:01:44.142Z,6.43
2019-04-01T00:04:12.208Z,6.40
2019-04-01T00:06:40.061Z,6.35
2019-04-01T00:09:08.229Z,6.29
2019-04-01T00:11:36.539Z,6.29
2019-04-01T00:14:04.605Z,6.23
2019-04-01T00:16:32.630Z,6.20
2019-04-01T00:19:03.285Z,6.24
2019-04-01T00:21:29.467Z,6.19
2019-04-01T00:23:57.403Z,6.04
2019-04-01T00:26:25.792Z,6.04
2019-04-01T00:28:53.066Z,6.02
2019-04-01T00:31:21.338Z,6.07
2019-04-01T00:33:48.879Z,6.00
2019-04-01T00:36:16.577Z,5.97
2019-04-01T00:38:44.568Z,5.91
2019-04-01T00:41:12.375Z,5.82
2019-04-01T00:43:59.577Z,5.93
2019-04-01T00:46:27.419Z,5.86
2019-04-01T00:48:55.809Z,5.90
2019-04-01T00:51:23.726Z,5.88
2019-04-01T00:53:51.247Z,5.81
2019-04-01T00:56:18.654Z,5.86
2019-04-01T00:58:46.398Z,5.79
2019-04-01T01:01:14.152Z,5.60
2019-04-01T01:03:41.887Z,5.66
2019-04-01T01:06:09.789Z,5.61
2019-04-01T01:08:37.838Z,5.66
2019-04-01T01:11:06.149Z,5.63
2019-04-01T01:13:33.944Z,5.57
2019-04-01T01:16:01.826Z,5.61
2019-04-01T01:18:29.826Z,5.42
2019-04-01T01:20:57.445Z,5.46
2019-04-01T01:23:24.994Z,5.49
2019-04-01T01:25:53.190Z,5.45
2019-04-01T01:28:21.089Z,5.39
2019-04-01T01:30:48.543Z,5.36
2019-04-01T01:33:16.183Z,5.26
2019-04-01T01:35:43.935Z,5.25
2019-04-01T01:38:11.339Z,5.17
2019-04-01T01:40:39.062Z,5.13
2019-04-01T01:43:07.055Z,5.24
2019-04-01T01:45:34.605Z,5.28
2019-04-01T01:48:02.294Z,5.17
2019-04-01T01:50:29.715Z,5.13
2019-04-01T01:52:57.277Z,5.12
2019-04-01T01:55:24.813Z,5.08
2019-04-01T01:57:52.291Z,5.14
2019-04-01T02:00:20.836Z,5.18
2019-04-01T02:02:49.227Z,5.22
2019-04-01T02:05:16.759Z,5.14
2019-04-01T02:07:44.863Z,5.08
2019-04-01T02:10:13.065Z,5.09
2019-04-01T02:12:40.374Z,5.09
2019-04-01T02:15:08.555Z,5.14
2019-04-01T02:17:36.959Z,5.10
2019-04-01T02:20:05.145Z,5.12
2019-04-01T02:22:32.693Z,5.02
2019-04-01T02:25:00.531Z,5.14
2019-04-01T02:27:28.299Z,5.04
2019-04-01T02:29:56.295Z,5.13
2019-04-01T02:32:23.682Z,5.16
2019-04-01T02:34:51.256Z,5.11
2019-04-01T02:37:18.731Z,5.07
2019-04-01T02:39:46.460Z,5.10
2019-04-01T02:42:14.513Z,5.24
2019-04-01T02:44:42.698Z,5.17
2019-04-01T02:47:10.721Z,5.20
2019-04-01T02:49:38.498Z,5.11
2019-04-01T02:52:05.840Z,5.07
2019-04-01T02:54:33.927Z,5.03
2019-04-01T02:57:01.498Z,4.98
2019-04-01T02:59:29.179Z,4.95
2019-04-01T03:01:57.142Z,4.90
2019-04-01T03:04:24.525Z,4.86
2019-04-01T03:06:52.448Z,4.81
2019-04-01T03:09:20.099Z,4.77
2019-04-01T03:11:48.013Z,4.74
2019-04-01T03:14:15.883Z,4.74
2019-04-01T03:16:44.044Z,4.72
2019-04-01T03:19:11.736Z,4.71
2019-04-01T03:21:39.400Z,4.66
2019-04-01T03:26:31.465Z,4.52
2019-04-01T03:28:59.132Z,4.53
2019-04-01T03:31:26.956Z,4.54
2019-04-01T03:33:54.721Z,4.51
2019-04-01T03:36:22.800Z,4.48
2019-04-01T03:38:50.761Z,4.52
2019-04-01T03:41:18.167Z,4.46
2019-04-01T03:43:45.945Z,4.44
2019-04-01T03:46:13.124Z,4.46
2019-04-01T03:48:40.773Z,4.41
2019-04-01T03:51:08.220Z,4.41
2019-04-01T03:53:35.959Z,4.44
2019-04-01T03:56:03.628Z,4.41
2019-04-01T03:58:31.241Z,4.42
2019-04-01T04:00:59.168Z,4.33
2019-04-01T04:03:26.783Z,4.37
2019-04-01T04:05:54.655Z,4.33
2019-04-01T04:08:22.606Z,4.28
2019-04-01T04:10:50.297Z,4.33
2019-04-01T04:13:17.990Z,4.24
2019-04-01T04:15:46.143Z,4.28
2019-04-01T04:18:13.931Z,4.20
2019-04-01T04:20:41.937Z,4.20
2019-04-01T04:23:09.839Z,4.13
2019-04-01T04:25:38.658Z,4.11
2019-04-01T04:28:06.534Z,4.10
2019-04-01T04:30:34.810Z,4.09
2019-04-01T04:33:02.604Z,4.00
2019-04-01T04:35:29.995Z,4.11
2019-04-01T04:37:57.535Z,4.08
2019-04-01T04:40:25.276Z,4.04
2019-04-01T04:42:53.172Z,4.05
2019-04-01T04:45:21.226Z,4.06
2019-04-01T04:47:48.980Z,4.04
2019-04-01T04:50:17.178Z,4.00
2019-04-01T04:52:45.154Z,3.96
2019-04-01T04:55:12.393Z,3.94
2019-04-01T04:57:39.793Z,3.93
2019-04-01T05:00:07.730Z,3.94
2019-04-01T05:02:35.282Z,3.82
2019-04-01T05:05:03.322Z,3.89
2019-04-01T05:07:31.515Z,3.89
2019-04-01T05:09:58.775Z,3.85
2019-04-01T05:12:26.321Z,3.83
2019-04-01T05:14:53.845Z,3.82
2019-04-01T05:17:22.014Z,3.88
2019-04-01T05:19:49.664Z,3.91
2019-04-01T05:22:20.561Z,3.97
2019-04-01T05:24:50.229Z,3.99
2019-04-01T05:29:47.560Z,4.02
2019-04-01T05:32:18.062Z,4.05
2019-04-01T05:34:48.444Z,4.06
2019-04-01T05:37:16.330Z,4.14
2019-04-01T05:39:45.116Z,4.16
2019-04-01T05:42:12.519Z,4.21
2019-04-01T05:44:40.063Z,4.24
2019-04-01T05:47:07.740Z,4.25
2019-04-01T05:49:35.503Z,4.31
2019-04-01T05:52:03.108Z,4.43
2019-04-01T05:54:31.020Z,4.48
2019-04-01T05:56:59.355Z,4.57
2019-04-01T05:59:27.961Z,4.59
2019-04-01T06:01:56.144Z,4.70
2019-04-01T06:04:23.414Z,4.78
2019-04-01T06:06:51.257Z,4.79
2019-04-01T06:09:19.282Z,4.90
2019-04-01T06:11:47.933Z,4.96
2019-04-01T06:14:15.350Z,5.04
2019-04-01T06:16:42.922Z,5.19
2019-04-01T06:19:11.020Z,5.28
2019-04-01T06:21:38.579Z,5.37
2019-04-01T06:24:07.152Z,5.40
2019-04-01T06:26:34.566Z,5.77
2019-04-01T06:29:02.161Z,6.06
2019-04-01T06:31:29.879Z,6.35
2019-04-01T06:33:57.411Z,6.63
2019-04-01T06:36:25.625Z,6.90
2019-04-01T06:38:53.491Z,7.22
2019-04-01T06:41:21.465Z,7.47
2019-04-01T06:43:49.270Z,7.90
2019-04-01T06:46:17.932Z,8.35
2019-04-01T06:48:46.041Z,8.88
2019-04-01T06:51:13.993Z,9.31
2019-04-01T06:53:44.633Z,9.87
2019-04-01T06:56:12.609Z,10.09
2019-04-01T06:58:40.193Z,10.33
2019-04-01T07:01:08.329Z,10.53
2019-04-01T07:03:35.862Z,10.88
2019-04-01T07:06:07.945Z,11.23
2019-04-01T07:08:35.865Z,11.55
2019-04-01T07:11:04.117Z,11.93
2019-04-01T07:13:31.930Z,12.18
2019-04-01T07:16:14.374Z,12.45
2019-04-01T07:18:29.476Z,12.77
2019-04-01T07:20:57.302Z,12.97
2019-04-01T07:23:25.325Z,13.20
2019-04-01T07:25:53.091Z,13.40
2019-04-01T07:28:20.962Z,13.66
2019-04-01T07:30:49.118Z,13.88
2019-04-01T07:33:16.875Z,14.18
2019-04-01T07:35:46.630Z,14.47
2019-04-01T07:38:14.302Z,14.91
2019-04-01T07:40:42.680Z,15.14
2019-04-01T07:43:10.790Z,15.26
2019-04-01T07:45:39.140Z,15.18
2019-04-01T07:48:06.810Z,15.38
2019-04-01T07:50:34.688Z,15.20
2019-04-01T07:53:02.224Z,15.59
2019-04-01T07:55:30.076Z,15.82
2019-04-01T07:57:59.701Z,15.36
2019-04-01T08:00:27.814Z,15.37
2019-04-01T08:02:55.988Z,15.88
2019-04-01T08:05:26.040Z,15.91
2019-04-01T08:07:54.067Z,16.14
2019-04-01T08:10:21.525Z,15.48
2019-04-01T08:12:49.986Z,15.63
2019-04-01T08:15:21.154Z,15.90
2019-04-01T08:17:47.195Z,16.09
2019-04-01T08:20:15.503Z,16.21
2019-04-01T08:22:43.622Z,16.24
2019-04-01T08:25:11.231Z,16.39
2019-04-01T08:27:39.121Z,16.74
2019-04-01T08:30:07.734Z,16.97
2019-04-01T08:32:35.757Z,17.00
2019-04-01T08:35:03.945Z,17.23
2019-04-01T08:37:31.716Z,17.70
2019-04-01T08:39:59.648Z,17.15
2019-04-01T08:42:27.038Z,17.71
2019-04-01T08:44:55.755Z,17.29
2019-04-01T08:47:23.832Z,17.35
2019-04-01T08:49:52.317Z,17.35
2019-04-01T08:52:20.566Z,17.87
2019-04-01T08:54:48.099Z,17.78
2019-04-01T08:57:15.978Z,18.09
2019-04-01T08:59:43.430Z,18.62
2019-04-01T09:02:18.287Z,19.30
2019-04-01T09:04:42.006Z,19.63
2019-04-01T09:07:09.513Z,19.78
2019-04-01T09:09:38.614Z,20.01
2019-04-01T09:12:07.230Z,20.31
2019-04-01T09:14:36.467Z,20.46
2019-04-01T09:17:04.337Z,20.52
2019-04-01T09:19:33.118Z,20.62
2019-04-01T09:22:01.412Z,20.94
2019-04-01T09:24:28.938Z,21.46
2019-04-01T09:26:56.338Z,21.43
2019-04-01T09:29:23.923Z,21.30
2019-04-01T09:31:51.583Z,21.55
2019-04-01T09:34:19.448Z,21.46
2019-04-01T09:36:47.387Z,21.82
2019-04-01T09:39:14.839Z,21.93
2019-04-01T09:41:43.187Z,22.54
2019-04-01T09:44:10.854Z,22.51
2019-04-01T09:46:38.250Z,22.45
2019-04-01T09:49:06.178Z,22.86
2019-04-01T09:51:47.894Z,23.15
2019-04-01T09:54:04.085Z,23.03
2019-04-01T09:56:31.959Z,22.90
2019-04-01T09:58:59.497Z,23.18
2019-04-01T10:01:27.639Z,23.30
2019-04-01T10:03:55.716Z,23.30
2019-04-01T10:06:23.728Z,23.47
2019-04-01T10:08:51.263Z,23.65
2019-04-01T10:11:18.740Z,23.68
2019-04-01T10:13:46.735Z,23.69
2019-04-01T10:16:14.298Z,23.81
2019-04-01T10:18:42.123Z,23.82
2019-04-01T10:21:10.655Z,23.41
2019-04-01T10:23:38.128Z,23.79
2019-04-01T10:26:05.677Z,24.04
2019-04-01T10:28:33.197Z,24.47
2019-04-01T10:31:01.337Z,24.50
2019-04-01T10:33:28.759Z,25.01
2019-04-01T10:35:56.281Z,25.24
2019-04-01T10:38:24.184Z,25.42
2019-04-01T10:40:51.640Z,25.75
2019-04-01T10:43:19.780Z,25.81
2019-04-01T10:45:47.277Z,26.28
2019-04-01T10:48:15.024Z,26.26
2019-04-01T10:50:42.816Z,26.50
2019-04-01T10:53:10.296Z,26.77
2019-04-01T10:55:37.913Z,26.81
2019-04-01T10:58:05.746Z,26.94
2019-04-01T11:00:33.793Z,27.15
2019-04-01T11:03:01.345Z,27.14
2019-04-01T11:05:28.894Z,27.31
2019-04-01T11:07:56.672Z,27.37
2019-04-01T11:10:24.529Z,27.52
2019-04-01T11:12:53.883Z,27.65
2019-04-01T11:15:21.596Z,27.70
2019-04-01T11:17:52.299Z,27.93
2019-04-01T11:20:19.147Z,27.94
2019-04-01T11:22:46.747Z,27.88
2019-04-01T11:25:14.917Z,27.93
2019-04-01T11:27:42.182Z,28.01
2019-04-01T11:30:13.694Z,27.88
2019-04-01T11:32:40.850Z,27.65
2019-04-01T11:35:08.401Z,27.72
2019-04-01T11:37:36.128Z,27.78
2019-04-01T11:40:05.150Z,28.12
2019-04-01T11:42:33.132Z,27.70
2019-04-01T11:45:05.905Z,27.78
2019-04-01T11:47:34.156Z,27.67
2019-04-01T11:50:02.813Z,27.72
2019-04-01T11:52:30.346Z,27.75
2019-04-01T11:54:58.808Z,27.91
2019-04-01T11:57:26.585Z,27.70
2019-04-01T11:59:54.249Z,27.73
2019-04-01T12:02:22.387Z,27.68
2019-04-01T12:04:50.204Z,27.74
2019-04-01T12:07:18.200Z,27.80
2019-04-01T12:09:46.356Z,27.58
2019-04-01T12:12:23.458Z,27.64
2019-04-01T12:14:44.404Z,27.36
2019-04-01T12:17:12.584Z,27.27
2019-04-01T12:19:40.470Z,27.30
2019-04-01T12:22:08.551Z,27.19
2019-04-01T12:24:36.351Z,27.18
2019-04-01T12:27:04.120Z,27.17
2019-04-01T12:29:31.817Z,27.15
2019-04-01T12:31:59.966Z,26.84
2019-04-01T12:34:28.885Z,26.87
2019-04-01T12:36:56.738Z,26.48
2019-04-01T12:39:24.669Z,26.14
2019-04-01T12:41:52.294Z,25.98
2019-04-01T12:44:19.842Z,26.04
2019-04-01T12:46:47.535Z,25.91
2019-04-01T12:49:14.947Z,25.94
2019-04-01T12:51:42.222Z,25.58
2019-04-01T12:54:10.001Z,25.45
2019-04-01T12:56:37.855Z,25.12
2019-04-01T12:59:05.534Z,24.90
2019-04-01T13:01:33.721Z,25.00
2019-04-01T13:04:04.320Z,24.78
2019-04-01T13:06:32.122Z,24.73
2019-04-01T13:08:59.692Z,24.59
2019-04-01T13:11:27.898Z,24.42
2019-04-01T13:13:55.775Z,24.21
2019-04-01T13:16:23.615Z,24.20
2019-04-01T13:18:51.030Z,23.89
2019-04-01T13:21:18.627Z,23.48
2019-04-01T13:23:46.826Z,23.33
2019-04-01T13:26:14.557Z,23.10
2019-04-01T13:28:42.544Z,23.08
2019-04-01T13:31:10.952Z,22.86
2019-04-01T13:33:38.391Z,22.59
2019-04-01T13:36:07.848Z,22.30
2019-04-01T13:38:35.440Z,22.11
2019-04-01T13:41:03.266Z,22.00
2019-04-01T13:43:31.053Z,21.93
2019-04-01T13:45:58.575Z,21.92
2019-04-01T13:48:26.471Z,21.65
2019-04-01T13:50:54.336Z,21.54
2019-04-01T13:53:22.219Z,21.43
2019-04-01T13:55:50.056Z,21.38
2019-04-01T13:58:17.848Z,21.24
2019-04-01T14:00:45.827Z,20.95
2019-04-01T14:03:13.362Z,20.99
2019-04-01T14:05:40.633Z,21.01
2019-04-01T14:08:08.472Z,20.81
2019-04-01T14:10:36.629Z,20.78
2019-04-01T14:13:05.918Z,20.71
2019-04-01T14:15:33.478Z,20.63
2019-04-01T14:18:01.448Z,20.66
2019-04-01T14:20:29.034Z,20.42
2019-04-01T14:22:56.828Z,20.20
2019-04-01T14:25:24.117Z,20.37
2019-04-01T14:27:52.118Z,20.17
2019-04-01T14:30:20.309Z,20.05
2019-04-01T14:32:48.070Z,20.14
2019-04-01T14:35:15.468Z,20.14
2019-04-01T14:37:43.608Z,20.15
2019-04-01T14:40:12.399Z,20.06
2019-04-01T14:42:40.170Z,20.10
2019-04-01T14:45:09.003Z,20.00
2019-04-01T14:47:55.984Z,19.88
2019-04-01T14:50:10.799Z,19.99
2019-04-01T14:52:38.515Z,19.90
2019-04-01T14:55:06.606Z,19.90
2019-04-01T14:57:34.762Z,19.82
2019-04-01T15:00:03.046Z,19.92
2019-04-01T15:02:30.570Z,19.93
2019-04-01T15:04:58.186Z,19.80
2019-04-01T15:07:26.153Z,19.90
2019-04-01T15:09:53.935Z,19.83
2019-04-01T15:12:21.908Z,19.76
2019-04-01T15:14:49.154Z,19.77
2019-04-01T15:17:17.472Z,19.65
2019-04-01T15:19:48.413Z,19.71
2019-04-01T15:22:14.817Z,19.51
2019-04-01T15:24:43.278Z,19.47
2019-04-01T15:27:13.511Z,19.40
2019-04-01T15:29:40.952Z,19.46
2019-04-01T15:32:08.488Z,19.45
2019-04-01T15:34:36.389Z,19.24
2019-04-01T15:37:04.632Z,19.21
2019-04-01T15:39:32.471Z,19.31
2019-04-01T15:42:00.007Z,19.06
2019-04-01T15:44:29.261Z,19.24
2019-04-01T15:46:56.899Z,19.38
2019-04-01T15:49:24.495Z,19.14
2019-04-01T15:51:52.311Z,18.90
2019-04-01T15:54:20.755Z,18.89
2019-04-01T15:56:49.140Z,18.89
2019-04-01T15:59:17.313Z,18.78
2019-04-01T16:01:45.550Z,18.84
2019-04-01T16:04:16.272Z,18.84
2019-04-01T16:06:42.567Z,18.80
2019-04-01T16:09:10.370Z,18.77
2019-04-01T16:11:37.681Z,18.61
2019-04-01T16:14:05.837Z,18.59
2019-04-01T16:16:33.547Z,18.73
2019-04-01T16:19:01.634Z,18.55
2019-04-01T16:21:31.438Z,18.53
2019-04-01T16:23:58.918Z,18.51
2019-04-01T16:26:26.831Z,18.32
2019-04-01T16:28:54.596Z,18.24
2019-04-01T16:31:22.518Z,18.21
2019-04-01T16:33:50.401Z,18.12
2019-04-01T16:36:18.528Z,18.05
2019-04-01T16:38:46.286Z,17.98
2019-04-01T16:41:14.178Z,17.96
2019-04-01T16:43:42.953Z,18.02
2019-04-01T16:46:11.361Z,17.89
2019-04-01T16:48:40.023Z,17.67
2019-04-01T16:51:07.879Z,17.74
2019-04-01T16:53:35.672Z,17.73
2019-04-01T16:56:04.342Z,17.58
2019-04-01T16:58:32.541Z,17.64
2019-04-01T17:01:02.638Z,17.54
2019-04-01T17:03:30.366Z,17.64
2019-04-01T17:05:58.394Z,17.50
2019-04-01T17:08:25.902Z,17.37
2019-04-01T17:10:53.720Z,17.30
2019-04-01T17:13:21.399Z,17.20
2019-04-01T17:15:49.488Z,17.25
2019-04-01T17:18:17.308Z,17.12
2019-04-01T17:20:44.817Z,17.07
2019-04-01T17:23:12.903Z,17.01
2019-04-01T17:25:40.650Z,16.74
2019-04-01T17:28:08.178Z,16.91
2019-04-01T17:30:35.600Z,16.65
2019-04-01T17:33:03.187Z,16.80
2019-04-01T17:35:31.015Z,16.46
2019-04-01T17:37:58.513Z,16.51
2019-04-01T17:40:26.291Z,16.57
2019-04-01T17:42:54.295Z,16.48
2019-04-01T17:45:37.999Z,16.20
2019-04-01T17:48:06.810Z,15.98
2019-04-01T17:50:34.592Z,15.83
2019-04-01T17:53:04.740Z,15.89
2019-04-01T17:55:32.283Z,15.76
2019-04-01T17:57:59.976Z,15.51
2019-04-01T18:00:28.541Z,15.60
2019-04-01T18:02:56.924Z,15.42
2019-04-01T18:05:24.859Z,15.32
2019-04-01T18:07:52.353Z,15.18
2019-04-01T18:10:20.231Z,15.08
2019-04-01T18:12:47.749Z,15.01
2019-04-01T18:15:16.339Z,14.77
2019-04-01T18:17:44.811Z,14.64
2019-04-01T18:20:12.548Z,14.56
2019-04-01T18:22:40.682Z,14.59
2019-04-01T18:25:09.308Z,14.57
2019-04-01T18:27:37.213Z,14.48
2019-04-01T18:30:06.736Z,14.21
2019-04-01T18:32:34.666Z,13.98
2019-04-01T18:35:04.213Z,14.20
2019-04-01T18:37:32.149Z,13.91
2019-04-01T18:39:59.921Z,13.87
2019-04-01T18:42:27.762Z,13.87
2019-04-01T18:44:55.991Z,13.70
2019-04-01T18:47:23.959Z,13.55
2019-04-01T18:49:51.258Z,13.56
2019-04-01T18:52:19.295Z,13.56
2019-04-01T18:54:47.058Z,13.49
2019-04-01T18:57:14.317Z,13.42
2019-04-01T18:59:42.114Z,13.17
2019-04-01T19:02:09.887Z,13.09
2019-04-01T19:04:38.336Z,13.08
2019-04-01T19:07:05.806Z,12.96
2019-04-01T19:09:33.458Z,12.88
2019-04-01T19:12:04.325Z,12.77
2019-04-01T19:14:31.160Z,12.74
2019-04-01T19:16:59.385Z,12.87
2019-04-01T19:19:26.854Z,12.67
2019-04-01T19:21:54.734Z,12.59
2019-04-01T19:24:22.154Z,12.45
2019-04-01T19:26:50.086Z,12.40
2019-04-01T19:29:17.508Z,12.49
2019-04-01T19:31:45.375Z,12.42
2019-04-01T19:34:12.654Z,12.25
2019-04-01T19:36:40.882Z,12.23
2019-04-01T19:39:08.210Z,12.24
2019-04-01T19:41:35.813Z,12.02
2019-04-01T19:44:03.726Z,12.06
2019-04-01T19:46:31.448Z,11.97
2019-04-01T19:49:01.230Z,11.81
2019-04-01T19:51:28.898Z,11.72
2019-04-01T19:53:56.297Z,11.78
2019-04-01T19:56:23.740Z,11.61
2019-04-01T19:58:51.121Z,11.65
2019-04-01T20:01:18.651Z,11.54
2019-04-01T20:03:46.226Z,11.55
2019-04-01T20:06:14.013Z,11.33
2019-04-01T20:08:41.915Z,11.32
2019-04-01T20:11:10.186Z,11.17
2019-04-01T20:13:39.294Z,11.17
2019-04-01T20:16:10.084Z,11.12
2019-04-01T20:18:36.767Z,11.01
2019-04-01T20:21:04.736Z,11.07
2019-04-01T20:23:32.011Z,10.94
2019-04-01T20:25:59.781Z,10.81
2019-04-01T20:28:27.667Z,10.72
2019-04-01T20:30:56.566Z,10.63
2019-04-01T20:33:24.413Z,10.54
2019-04-01T20:35:53.159Z,10.53
2019-04-01T20:38:20.886Z,10.47
2019-04-01T20:40:48.436Z,10.63
2019-04-01T20:43:16.256Z,10.53
2019-04-01T20:45:43.652Z,10.29
2019-04-01T20:48:11.464Z,10.47
2019-04-01T20:50:39.274Z,10.54
2019-04-01T20:53:06.974Z,10.37
2019-04-01T20:55:47.400Z,10.18
2019-04-01T20:58:04.962Z,10.21
2019-04-01T21:00:32.353Z,10.20
2019-04-01T21:03:01.301Z,10.06
2019-04-01T21:05:29.396Z,10.03
2019-04-01T21:07:57.580Z,9.96
2019-04-01T21:10:24.967Z,9.96
2019-04-01T21:12:53.701Z,9.86
2019-04-01T21:15:24.811Z,9.71
2019-04-01T21:17:53.359Z,9.69
2019-04-01T21:20:22.059Z,9.48
2019-04-01T21:22:49.591Z,9.46
2019-04-01T21:25:17.023Z,9.62
2019-04-01T21:27:44.966Z,9.69
2019-04-01T21:30:13.752Z,9.72
2019-04-01T21:32:41.745Z,9.65
2019-04-01T21:35:09.787Z,9.58
2019-04-01T21:37:37.915Z,9.26
2019-04-01T21:40:06.258Z,9.46
2019-04-01T21:42:33.809Z,9.52
2019-04-01T21:45:01.536Z,9.34
2019-04-01T21:47:29.688Z,9.17
2019-04-01T21:49:58.213Z,9.19
2019-04-01T21:52:26.151Z,9.26
2019-04-01T21:54:53.931Z,9.17
2019-04-01T21:57:22.741Z,9.06
2019-04-01T21:59:51.417Z,9.05
2019-04-01T22:02:19.035Z,8.96
2019-04-01T22:04:47.247Z,9.05
2019-04-01T22:07:15.437Z,8.87
2019-04-01T22:09:43.295Z,8.91
2019-04-01T22:12:11.037Z,8.89
2019-04-01T22:14:39.416Z,8.96
2019-04-01T22:17:06.957Z,9.02
2019-04-01T22:19:34.700Z,8.92
2019-04-01T22:22:02.054Z,8.78
2019-04-01T22:24:30.359Z,8.88
2019-04-01T22:26:58.245Z,8.81
2019-04-01T22:29:26.284Z,8.70
2019-04-01T22:31:53.817Z,8.72
2019-04-01T22:34:22.043Z,8.72
2019-04-01T22:36:50.024Z,8.65
2019-04-01T22:39:27.061Z,8.62
2019-04-01T22:41:47.785Z,8.67
2019-04-01T22:44:15.702Z,8.55
2019-04-01T22:46:43.753Z,8.63
2019-04-01T22:49:12.208Z,8.55
2019-04-01T22:51:40.919Z,8.53
2019-04-01T22:54:09.104Z,8.39
2019-04-01T22:56:37.034Z,8.39
2019-04-01T22:59:04.423Z,8.40
2019-04-01T23:01:32.292Z,8.39
2019-04-01T23:04:00.322Z,8.46
2019-04-01T23:06:27.614Z,8.37
2019-04-01T23:08:56.066Z,8.21
2019-04-01T23:11:24.208Z,8.21
2019-04-01T23:13:53.396Z,8.15
2019-04-01T23:16:20.941Z,8.28
2019-04-01T23:18:48.477Z,8.14
2019-04-01T23:21:15.901Z,8.05
2019-04-01T23:23:43.553Z,8.09
2019-04-01T23:26:11.528Z,8.02
2019-04-01T23:28:39.464Z,7.97
2019-04-01T23:31:07.951Z,7.97
2019-04-01T23:33:35.260Z,7.95
2019-04-01T23:36:02.917Z,7.76
2019-04-01T23:38:30.816Z,7.72
2019-04-01T23:40:58.096Z,7.67
2019-04-01T23:43:26.193Z,7.72
2019-04-01T23:45:54.355Z,7.75
2019-04-01T23:48:21.716Z,7.71
2019-04-01T23:50:49.332Z,7.68
2019-04-01T23:53:17.186Z,7.68
2019-04-01T23:55:45.099Z,7.64
2019-04-01T23:58:12.845Z,7.56
